createdAt,value
2022-09-29T00:00:38.097Z,51.50
2022-09-29T00:03:04.599Z,51.40
2022-09-29T00:05:31.136Z,51.40
2022-09-29T00:07:57.609Z,51.60
2022-09-29T00:10:24.073Z,51.60
2022-09-29T00:12:50.546Z,51.50
2022-09-29T00:15:17.046Z,51.50
2022-09-29T00:18:02.714Z,51.40
2022-09-29T00:20:30.002Z,51.40
2022-09-29T00:22:56.451Z,51.40
2022-09-29T00:25:22.946Z,51.40
2022-09-29T00:27:49.431Z,51.40
2022-09-29T00:30:15.916Z,51.30
2022-09-29T00:32:42.389Z,51.30
2022-09-29T00:35:08.886Z,51.30
2022-09-29T00:37:35.350Z,51.20
2022-09-29T00:40:01.836Z,51.40
2022-09-29T00:42:28.319Z,51.40
2022-09-29T00:44:54.791Z,51.40
2022-09-29T00:47:21.252Z,51.30
2022-09-29T00:49:47.721Z,51.30
2022-09-29T00:52:14.195Z,51.20
2022-09-29T00:54:40.646Z,51.10
2022-09-29T00:57:07.102Z,51.30
2022-09-29T00:59:33.570Z,51.20
2022-09-29T01:02:00.124Z,51.30
2022-09-29T01:04:26.669Z,51.30
2022-09-29T01:06:53.134Z,51.30
2022-09-29T01:09:19.602Z,51.30
2022-09-29T01:11:46.076Z,51.10
2022-09-29T01:14:12.626Z,51.10
2022-09-29T01:16:39.192Z,51.10
2022-09-29T01:19:05.735Z,51.10
2022-09-29T01:21:32.221Z,51.00
2022-09-29T01:23:58.688Z,51.00
2022-09-29T01:26:25.152Z,50.90
2022-09-29T01:28:51.623Z,51.10
2022-09-29T01:31:18.088Z,51.20
2022-09-29T01:33:44.594Z,51.10
2022-09-29T01:36:11.086Z,51.10
2022-09-29T01:38:37.558Z,51.10
2022-09-29T01:41:04.116Z,51.00
2022-09-29T01:43:30.658Z,50.90
2022-09-29T01:45:57.193Z,50.90
2022-09-29T01:48:23.701Z,50.80
2022-09-29T01:50:50.180Z,50.80
2022-09-29T01:53:16.665Z,50.80
2022-09-29T01:55:43.175Z,50.70
2022-09-29T01:58:09.635Z,50.80
2022-09-29T02:00:36.154Z,50.90
2022-09-29T02:03:02.614Z,50.90
2022-09-29T02:05:29.112Z,50.90
2022-09-29T02:07:55.582Z,50.80
2022-09-29T02:10:22.063Z,50.80
2022-09-29T02:12:48.560Z,50.80
2022-09-29T02:15:15.027Z,50.70
2022-09-29T02:17:41.490Z,50.80
2022-09-29T02:20:07.994Z,50.70
2022-09-29T02:22:34.483Z,50.80
2022-09-29T02:25:00.942Z,50.80
2022-09-29T02:27:27.406Z,50.80
2022-09-29T02:29:53.869Z,51.30
2022-09-29T02:32:20.360Z,50.60
2022-09-29T02:34:46.848Z,50.60
2022-09-29T02:37:13.333Z,50.70
2022-09-29T02:39:39.822Z,50.70
2022-09-29T02:42:06.297Z,50.60
2022-09-29T02:44:32.771Z,50.60
2022-09-29T02:46:59.255Z,50.70
2022-09-29T02:49:26.843Z,50.70
2022-09-29T02:51:53.321Z,50.60
2022-09-29T02:54:19.896Z,50.80
2022-09-29T02:56:46.542Z,50.60
2022-09-29T02:59:13.014Z,50.60
2022-09-29T03:01:39.482Z,50.60
2022-09-29T03:04:05.983Z,50.60
2022-09-29T03:06:32.482Z,50.60
2022-09-29T03:08:58.993Z,50.60
2022-09-29T03:11:25.470Z,50.60
2022-09-29T03:13:51.927Z,50.60
2022-09-29T03:16:18.453Z,50.60
2022-09-29T03:18:44.955Z,50.60
2022-09-29T03:21:11.439Z,50.60
2022-09-29T03:23:37.918Z,50.50
2022-09-29T03:26:04.402Z,50.50
2022-09-29T03:28:30.876Z,50.40
2022-09-29T03:30:57.378Z,50.60
2022-09-29T03:33:23.844Z,50.60
2022-09-29T03:35:50.322Z,50.50
2022-09-29T03:38:16.789Z,50.50
2022-09-29T03:40:43.299Z,50.50
2022-09-29T03:43:09.822Z,50.50
2022-09-29T03:45:36.338Z,50.40
2022-09-29T03:48:02.818Z,50.60
2022-09-29T03:50:29.294Z,50.50
2022-09-29T03:52:55.768Z,50.40
2022-09-29T03:55:22.270Z,50.50
2022-09-29T03:57:48.744Z,50.50
2022-09-29T04:00:15.248Z,50.50
2022-09-29T04:02:41.740Z,50.50
2022-09-29T04:05:08.238Z,50.40
2022-09-29T04:07:34.723Z,50.40
2022-09-29T04:10:01.193Z,50.30
2022-09-29T04:12:27.641Z,50.50
2022-09-29T04:14:54.091Z,50.40
2022-09-29T04:17:20.575Z,50.30
2022-09-29T04:19:47.055Z,50.30
2022-09-29T04:22:13.538Z,50.30
2022-09-29T04:24:40.004Z,50.40
2022-09-29T04:27:06.485Z,50.50
2022-09-29T04:29:32.958Z,50.40
2022-09-29T04:31:59.484Z,50.30
2022-09-29T04:34:26.034Z,50.30
2022-09-29T04:36:52.515Z,50.30
2022-09-29T04:39:19.117Z,50.40
2022-09-29T04:41:45.736Z,50.40
2022-09-29T04:44:12.201Z,50.20
2022-09-29T04:46:38.676Z,50.30
2022-09-29T04:49:05.168Z,50.40
2022-09-29T04:51:31.625Z,50.40
2022-09-29T04:53:58.081Z,50.20
2022-09-29T04:56:24.553Z,50.20
2022-09-29T04:58:51.021Z,50.20
2022-09-29T05:01:17.549Z,50.20
2022-09-29T05:03:44.039Z,50.30
2022-09-29T05:06:10.524Z,50.10
2022-09-29T05:08:36.978Z,50.10
2022-09-29T05:11:03.454Z,50.20
2022-09-29T05:13:29.910Z,50.20
2022-09-29T05:15:56.451Z,50.10
2022-09-29T05:18:22.959Z,50.10
2022-09-29T05:21:05.667Z,50.10
2022-09-29T05:23:35.912Z,50.10
2022-09-29T05:26:02.407Z,50.20
2022-09-29T05:28:28.884Z,50.30
2022-09-29T05:30:55.363Z,50.30
2022-09-29T05:33:21.831Z,50.30
2022-09-29T05:35:48.311Z,50.20
2022-09-29T05:38:14.799Z,50.30
2022-09-29T05:40:41.330Z,50.20
2022-09-29T05:43:07.846Z,49.90
2022-09-29T05:45:34.355Z,50.10
2022-09-29T05:48:00.874Z,50.00
2022-09-29T05:50:27.351Z,50.00
2022-09-29T05:52:53.817Z,49.80
2022-09-29T05:55:20.298Z,49.90
2022-09-29T05:57:46.769Z,50.00
2022-09-29T06:00:13.250Z,50.00
2022-09-29T06:02:39.810Z,49.90
2022-09-29T06:05:06.335Z,50.00
2022-09-29T06:07:32.813Z,49.80
2022-09-29T06:09:59.279Z,49.90
2022-09-29T06:12:25.766Z,49.80
2022-09-29T06:14:52.256Z,49.90
2022-09-29T06:17:18.727Z,49.80
2022-09-29T06:19:45.215Z,49.90
2022-09-29T06:22:11.686Z,49.80
2022-09-29T06:24:38.158Z,49.70
2022-09-29T06:27:04.630Z,49.80
2022-09-29T06:29:31.106Z,49.80
2022-09-29T06:31:57.644Z,49.80
2022-09-29T06:34:24.376Z,49.80
2022-09-29T06:36:50.855Z,49.80
2022-09-29T06:39:17.424Z,49.80
2022-09-29T06:41:43.945Z,49.80
2022-09-29T06:44:10.430Z,49.60
2022-09-29T06:46:36.915Z,49.60
2022-09-29T06:49:03.383Z,49.60
2022-09-29T06:51:41.821Z,49.80
2022-09-29T06:54:12.407Z,49.70
2022-09-29T06:56:39.193Z,49.80
2022-09-29T06:59:05.667Z,49.70
2022-09-29T07:01:32.258Z,49.80
2022-09-29T07:03:58.778Z,49.80
2022-09-29T07:06:25.264Z,49.80
2022-09-29T07:08:51.738Z,49.80
2022-09-29T07:11:18.208Z,49.70
2022-09-29T07:13:44.667Z,49.80
2022-09-29T07:16:11.215Z,49.80
2022-09-29T07:18:37.790Z,49.80
2022-09-29T07:21:04.295Z,49.80
2022-09-29T07:23:30.770Z,49.80
2022-09-29T07:25:57.260Z,49.90
2022-09-29T07:28:23.749Z,49.80
2022-09-29T07:30:50.215Z,49.70
2022-09-29T07:33:16.989Z,49.70
2022-09-29T07:35:43.934Z,49.70
2022-09-29T07:38:10.410Z,49.80
2022-09-29T07:40:36.941Z,49.80
2022-09-29T07:43:04.597Z,49.70
2022-09-29T07:45:31.132Z,49.70
2022-09-29T07:47:57.622Z,49.80
2022-09-29T07:50:24.116Z,49.80
2022-09-29T07:52:50.583Z,49.80
2022-09-29T07:55:17.074Z,49.80
2022-09-29T07:57:43.555Z,49.90
2022-09-29T08:00:10.063Z,49.90
2022-09-29T08:02:36.578Z,49.80
2022-09-29T08:05:07.374Z,50.50
2022-09-29T08:07:34.159Z,50.00
2022-09-29T08:10:12.388Z,49.90
2022-09-29T08:12:44.247Z,49.90
2022-09-29T08:15:11.064Z,49.90
2022-09-29T08:17:37.539Z,49.90
2022-09-29T08:20:04.040Z,50.00
2022-09-29T08:22:30.495Z,50.00
2022-09-29T08:24:56.996Z,49.90
2022-09-29T08:27:23.472Z,50.10
2022-09-29T08:29:49.930Z,49.90
2022-09-29T08:32:16.406Z,50.20
2022-09-29T08:34:42.867Z,50.20
2022-09-29T08:37:09.321Z,50.20
2022-09-29T08:39:35.790Z,50.10
2022-09-29T08:42:02.270Z,50.30
2022-09-29T08:44:37.867Z,50.40
2022-09-29T08:47:10.284Z,50.50
2022-09-29T08:49:37.613Z,50.70
2022-09-29T08:52:13.424Z,50.60
2022-09-29T08:54:47.526Z,50.90
2022-09-29T08:57:15.073Z,50.70
2022-09-29T08:59:41.545Z,50.70
2022-09-29T09:02:08.059Z,50.80
2022-09-29T09:04:34.553Z,50.90
2022-09-29T09:07:01.022Z,50.80
2022-09-29T09:09:27.489Z,50.60
2022-09-29T09:11:53.949Z,50.70
2022-09-29T09:14:20.413Z,50.80
2022-09-29T09:16:46.952Z,50.60
2022-09-29T09:19:13.453Z,50.60
2022-09-29T09:21:39.933Z,50.80
2022-09-29T09:24:06.409Z,51.30
2022-09-29T09:26:32.887Z,51.30
2022-09-29T09:28:59.377Z,51.30
2022-09-29T09:31:25.857Z,51.60
2022-09-29T09:34:04.272Z,51.30
2022-09-29T09:36:34.539Z,51.20
2022-09-29T09:39:01.171Z,51.10
2022-09-29T09:41:30.044Z,51.10
2022-09-29T09:43:59.987Z,51.40
2022-09-29T09:46:29.820Z,51.40
2022-09-29T09:48:58.821Z,51.60
2022-09-29T09:51:25.296Z,51.40
2022-09-29T09:53:51.763Z,51.40
2022-09-29T09:56:18.242Z,51.40
2022-09-29T09:58:44.698Z,51.20
2022-09-29T10:01:11.186Z,50.90
2022-09-29T10:03:37.678Z,51.10
2022-09-29T10:06:04.168Z,51.10
2022-09-29T10:08:30.694Z,51.20
2022-09-29T10:10:59.131Z,51.10
2022-09-29T10:13:25.954Z,51.80
2022-09-29T10:15:52.411Z,51.10
2022-09-29T10:18:18.886Z,51.40
2022-09-29T10:20:45.372Z,51.30
2022-09-29T10:23:11.841Z,51.20
2022-09-29T10:25:38.340Z,51.30
2022-09-29T10:28:04.820Z,51.40
2022-09-29T10:30:31.332Z,51.30
2022-09-29T10:32:57.826Z,51.30
2022-09-29T10:35:24.372Z,51.30
2022-09-29T10:37:50.861Z,51.30
2022-09-29T10:40:17.362Z,51.40
2022-09-29T10:42:43.830Z,51.40
2022-09-29T10:45:10.335Z,51.40
2022-09-29T10:47:36.819Z,51.30
2022-09-29T10:50:03.301Z,51.20
2022-09-29T10:52:29.783Z,51.00
2022-09-29T10:54:56.246Z,50.90
2022-09-29T10:57:22.699Z,50.90
2022-09-29T10:59:49.167Z,50.90
2022-09-29T11:02:15.730Z,51.00
2022-09-29T11:04:42.224Z,51.00
2022-09-29T11:07:08.707Z,50.90
2022-09-29T11:09:35.204Z,51.00
2022-09-29T11:12:06.183Z,50.80
2022-09-29T11:14:35.158Z,50.90
2022-09-29T11:17:01.681Z,51.10
2022-09-29T11:19:28.224Z,51.10
2022-09-29T11:21:54.721Z,51.10
2022-09-29T11:24:21.198Z,51.10
2022-09-29T11:26:47.664Z,51.00
2022-09-29T11:29:14.128Z,51.30
2022-09-29T11:31:40.601Z,51.30
2022-09-29T11:34:07.059Z,51.20
2022-09-29T11:36:33.529Z,51.10
2022-09-29T11:38:59.988Z,51.20
2022-09-29T11:41:26.448Z,51.30
2022-09-29T11:43:52.935Z,51.30
2022-09-29T11:46:19.415Z,50.90
2022-09-29T11:48:45.926Z,51.10
2022-09-29T11:51:12.410Z,51.00
2022-09-29T11:53:38.868Z,51.00
2022-09-29T11:56:05.355Z,50.90
2022-09-29T11:58:31.834Z,50.90
2022-09-29T12:00:58.321Z,51.00
2022-09-29T12:03:24.834Z,51.10
2022-09-29T12:05:51.324Z,51.10
2022-09-29T12:08:17.782Z,51.10
2022-09-29T12:10:44.321Z,51.10
2022-09-29T12:13:10.796Z,50.90
2022-09-29T12:15:40.211Z,50.90
2022-09-29T12:18:07.618Z,50.80
2022-09-29T12:20:34.086Z,50.80
2022-09-29T12:23:00.565Z,50.80
2022-09-29T12:25:27.056Z,50.80
2022-09-29T12:27:53.516Z,50.80
2022-09-29T12:30:19.979Z,50.80
2022-09-29T12:32:46.449Z,50.80
2022-09-29T12:35:12.942Z,50.80
2022-09-29T12:37:39.429Z,50.90
2022-09-29T12:40:05.918Z,50.80
2022-09-29T12:42:32.398Z,51.00
2022-09-29T12:44:58.898Z,50.80
2022-09-29T12:47:25.367Z,50.90
2022-09-29T12:49:51.843Z,50.80
2022-09-29T12:52:18.300Z,50.80
2022-09-29T12:54:44.773Z,50.80
2022-09-29T12:57:11.234Z,50.60
2022-09-29T12:59:37.700Z,50.40
2022-09-29T13:02:04.266Z,50.60
2022-09-29T13:04:30.799Z,50.80
2022-09-29T13:06:57.268Z,50.60
2022-09-29T13:09:23.930Z,50.60
2022-09-29T13:11:50.549Z,50.60
2022-09-29T13:14:17.013Z,50.80
2022-09-29T13:16:43.511Z,50.80
2022-09-29T13:19:33.899Z,50.80
2022-09-29T13:21:56.447Z,50.80
2022-09-29T13:24:22.912Z,50.80
2022-09-29T13:26:49.384Z,50.70
2022-09-29T13:29:15.900Z,50.80
2022-09-29T13:34:15.457Z,50.70
2022-09-29T13:36:44.147Z,50.80
2022-09-29T13:39:10.629Z,50.80
2022-09-29T13:41:37.101Z,50.70
2022-09-29T13:44:03.554Z,50.70
2022-09-29T13:46:30.057Z,50.70
2022-09-29T13:48:56.529Z,50.60
2022-09-29T13:51:23.011Z,50.60
2022-09-29T13:53:49.500Z,50.60
2022-09-29T13:56:15.977Z,50.60
2022-09-29T13:58:42.443Z,50.50
2022-09-29T14:01:08.948Z,50.50
2022-09-29T14:03:35.419Z,50.50
2022-09-29T14:06:08.739Z,50.50
2022-09-29T14:08:43.544Z,50.20
2022-09-29T14:11:10.026Z,50.30
2022-09-29T14:13:36.500Z,50.30
2022-09-29T14:16:03.021Z,50.30
2022-09-29T14:18:29.543Z,50.30
2022-09-29T14:20:56.031Z,50.10
2022-09-29T14:23:22.500Z,50.20
2022-09-29T14:25:48.990Z,50.30
2022-09-29T14:28:15.478Z,50.10
2022-09-29T14:30:42.016Z,49.90
2022-09-29T14:33:08.519Z,50.00
2022-09-29T14:35:35.004Z,50.10
2022-09-29T14:38:01.483Z,50.10
2022-09-29T14:40:28.033Z,50.10
2022-09-29T14:42:54.519Z,49.90
2022-09-29T14:45:21.028Z,49.90
2022-09-29T14:47:47.552Z,49.80
2022-09-29T14:50:14.073Z,49.70
2022-09-29T14:52:40.552Z,49.70
2022-09-29T14:55:07.021Z,49.80
2022-09-29T14:57:33.505Z,50.00
2022-09-29T14:59:59.993Z,49.90
2022-09-29T15:02:26.493Z,49.90
2022-09-29T15:04:53.011Z,49.90
2022-09-29T15:07:19.486Z,49.90
2022-09-29T15:09:46.009Z,49.80
2022-09-29T15:12:12.533Z,49.90
2022-09-29T15:14:41.774Z,49.70
2022-09-29T15:17:08.439Z,50.00
2022-09-29T15:19:34.917Z,50.00
2022-09-29T15:22:01.384Z,50.00
2022-09-29T15:24:27.867Z,50.00
2022-09-29T15:26:54.353Z,49.90
2022-09-29T15:29:21.103Z,49.90
2022-09-29T15:31:47.834Z,50.50
2022-09-29T15:34:14.330Z,49.90
2022-09-29T15:36:40.806Z,49.90
2022-09-29T15:39:07.287Z,50.00
2022-09-29T15:41:33.768Z,50.00
2022-09-29T15:44:00.255Z,50.00
2022-09-29T15:46:26.769Z,50.00
2022-09-29T15:48:53.280Z,50.00
2022-09-29T15:51:19.744Z,50.00
2022-09-29T15:53:46.230Z,49.90
2022-09-29T15:56:12.704Z,49.90
2022-09-29T15:58:39.198Z,50.00
2022-09-29T16:01:05.723Z,50.00
2022-09-29T16:03:32.221Z,50.10
2022-09-29T16:05:58.714Z,50.20
2022-09-29T16:08:25.199Z,50.00
2022-09-29T16:10:51.674Z,50.00
2022-09-29T16:13:18.153Z,50.10
2022-09-29T16:15:44.678Z,50.10
2022-09-29T16:18:11.231Z,50.20
2022-09-29T16:20:37.700Z,50.10
2022-09-29T16:23:04.170Z,50.20
2022-09-29T16:25:30.678Z,50.30
2022-09-29T16:27:57.177Z,50.40
2022-09-29T16:30:23.655Z,50.40
2022-09-29T16:32:50.115Z,50.20
2022-09-29T16:35:16.621Z,50.20
2022-09-29T16:37:43.099Z,50.20
2022-09-29T16:40:09.607Z,50.20
2022-09-29T16:42:36.068Z,50.20
2022-09-29T16:45:02.563Z,50.20
2022-09-29T16:47:29.047Z,50.30
2022-09-29T16:49:55.555Z,50.20
2022-09-29T16:52:22.038Z,50.20
2022-09-29T16:54:48.516Z,50.20
2022-09-29T16:57:14.993Z,50.20
2022-09-29T16:59:41.463Z,50.20
2022-09-29T17:02:07.922Z,50.20
2022-09-29T17:04:34.393Z,50.20
2022-09-29T17:07:00.892Z,50.20
2022-09-29T17:09:27.429Z,50.10
2022-09-29T17:11:53.914Z,50.20
2022-09-29T17:14:20.402Z,50.20
2022-09-29T17:16:46.868Z,50.20
2022-09-29T17:19:13.376Z,50.30
2022-09-29T17:21:39.954Z,50.40
2022-09-29T17:24:06.421Z,50.30
2022-09-29T17:26:32.890Z,50.40
2022-09-29T17:28:59.369Z,50.40
2022-09-29T17:31:25.937Z,50.30
2022-09-29T17:33:52.440Z,50.40
2022-09-29T17:36:18.923Z,50.40
2022-09-29T17:38:45.390Z,50.40
2022-09-29T17:41:11.867Z,50.40
2022-09-29T17:43:38.350Z,50.50
2022-09-29T17:46:04.882Z,50.40
2022-09-29T17:48:31.378Z,50.40
2022-09-29T17:50:57.860Z,50.40
2022-09-29T17:53:24.341Z,50.40
2022-09-29T17:55:50.841Z,50.40
2022-09-29T17:58:17.340Z,50.50
2022-09-29T18:00:43.809Z,50.40
2022-09-29T18:03:10.286Z,50.50
2022-09-29T18:05:36.776Z,50.40
2022-09-29T18:08:03.252Z,50.50
2022-09-29T18:10:29.738Z,50.60
2022-09-29T18:12:56.206Z,50.40
2022-09-29T18:15:22.688Z,50.60
2022-09-29T18:17:49.161Z,50.60
2022-09-29T18:20:15.667Z,50.50
2022-09-29T18:22:42.132Z,50.40
2022-09-29T18:25:08.623Z,50.40
2022-09-29T18:27:35.103Z,50.50
2022-09-29T18:30:01.586Z,50.50
2022-09-29T18:32:28.051Z,50.60
2022-09-29T18:34:54.502Z,50.60
2022-09-29T18:37:20.975Z,50.60
2022-09-29T18:39:47.444Z,50.60
2022-09-29T18:42:13.921Z,50.50
2022-09-29T18:44:40.393Z,50.60
2022-09-29T18:47:06.851Z,50.60
2022-09-29T18:49:33.323Z,50.60
2022-09-29T18:51:59.817Z,50.50
2022-09-29T18:54:26.296Z,50.60
2022-09-29T18:56:54.736Z,50.60
2022-09-29T18:59:21.471Z,50.60
2022-09-29T19:01:48.159Z,50.60
2022-09-29T19:04:14.711Z,50.60
2022-09-29T19:06:41.172Z,50.60
2022-09-29T19:09:07.668Z,50.50
2022-09-29T19:11:34.217Z,50.50
2022-09-29T19:14:00.893Z,50.50
2022-09-29T19:16:27.444Z,50.50
2022-09-29T19:18:53.993Z,50.60
2022-09-29T19:21:20.470Z,50.60
2022-09-29T19:23:46.931Z,50.60
2022-09-29T19:26:13.405Z,50.60
2022-09-29T19:28:39.865Z,50.60
2022-09-29T19:31:06.412Z,50.60
2022-09-29T19:33:32.954Z,51.20
2022-09-29T19:35:59.425Z,50.60
2022-09-29T19:38:25.902Z,50.60
2022-09-29T19:40:52.398Z,50.60
2022-09-29T19:43:18.886Z,50.60
2022-09-29T19:45:45.371Z,50.60
2022-09-29T19:48:11.835Z,50.60
2022-09-29T19:50:38.366Z,50.60
2022-09-29T19:53:04.877Z,50.60
2022-09-29T19:55:31.387Z,50.60
2022-09-29T19:57:57.841Z,50.40
2022-09-29T20:00:24.325Z,50.40
2022-09-29T20:02:50.876Z,50.40
2022-09-29T20:05:17.426Z,50.40
2022-09-29T20:07:43.900Z,50.60
2022-09-29T20:10:10.389Z,50.50
2022-09-29T20:12:36.851Z,50.40
2022-09-29T20:15:03.321Z,50.40
2022-09-29T20:17:29.814Z,50.50
2022-09-29T20:19:56.292Z,50.40
2022-09-29T20:22:22.770Z,50.40
2022-09-29T20:24:49.249Z,50.40
2022-09-29T20:27:15.721Z,50.40
2022-09-29T20:29:42.186Z,50.40
2022-09-29T20:32:08.679Z,50.40
2022-09-29T20:34:35.158Z,50.30
2022-09-29T20:37:01.643Z,50.50
2022-09-29T20:39:28.126Z,50.20
2022-09-29T20:41:54.619Z,50.30
2022-09-29T20:44:21.179Z,50.20
2022-09-29T20:46:47.757Z,50.10
2022-09-29T20:49:14.306Z,50.20
2022-09-29T20:51:40.801Z,50.30
2022-09-29T20:54:07.307Z,50.20
2022-09-29T20:56:33.795Z,50.20
2022-09-29T20:59:00.257Z,50.20
2022-09-29T21:01:26.775Z,50.50
2022-09-29T21:03:53.302Z,50.30
2022-09-29T21:06:19.787Z,50.20
2022-09-29T21:08:46.251Z,50.30
2022-09-29T21:11:12.715Z,50.20
2022-09-29T21:13:39.179Z,50.10
2022-09-29T21:16:05.726Z,50.10
2022-09-29T21:18:32.224Z,50.00
2022-09-29T21:20:58.720Z,50.00
2022-09-29T21:23:25.211Z,50.80
2022-09-29T21:25:51.670Z,50.10
2022-09-29T21:28:18.123Z,50.10
2022-09-29T21:30:44.590Z,50.10
2022-09-29T21:33:11.061Z,50.10
2022-09-29T21:35:37.535Z,50.10
2022-09-29T21:38:03.998Z,50.20
2022-09-29T21:40:30.473Z,50.20
2022-09-29T21:42:56.950Z,50.10
2022-09-29T21:45:23.426Z,50.00
2022-09-29T21:47:49.883Z,50.20
2022-09-29T21:50:16.369Z,50.00
2022-09-29T21:52:42.831Z,50.00
2022-09-29T21:55:09.342Z,50.10
2022-09-29T21:57:35.818Z,50.00
2022-09-29T22:00:02.290Z,50.00
2022-09-29T22:02:28.856Z,50.00
2022-09-29T22:04:55.395Z,50.00
2022-09-29T22:07:21.895Z,50.10
2022-09-29T22:09:48.400Z,50.10
2022-09-29T22:12:14.880Z,50.30
2022-09-29T22:14:43.161Z,50.00
2022-09-29T22:17:11.360Z,50.10
2022-09-29T22:19:38.116Z,50.10
2022-09-29T22:22:05.011Z,50.10
2022-09-29T22:24:31.476Z,50.10
2022-09-29T22:26:57.951Z,50.10
2022-09-29T22:29:24.646Z,50.00
2022-09-29T22:31:51.400Z,50.00
2022-09-29T22:34:17.898Z,50.00
2022-09-29T22:36:44.365Z,49.90
2022-09-29T22:39:10.858Z,50.00
2022-09-29T22:41:37.319Z,50.00
2022-09-29T22:44:03.803Z,50.00
2022-09-29T22:46:30.386Z,50.10
2022-09-29T22:48:56.909Z,50.00
2022-09-29T22:51:23.371Z,49.90
2022-09-29T22:53:49.836Z,49.80
2022-09-29T22:56:16.308Z,49.90
2022-09-29T22:58:42.787Z,50.00
2022-09-29T23:01:09.254Z,49.90
2022-09-29T23:03:35.781Z,49.90
2022-09-29T23:06:02.283Z,49.90
2022-09-29T23:08:28.744Z,49.80
2022-09-29T23:10:55.222Z,49.90
2022-09-29T23:13:21.690Z,49.80
2022-09-29T23:15:48.190Z,49.90
2022-09-29T23:18:14.686Z,49.70
2022-09-29T23:20:41.161Z,49.90
2022-09-29T23:23:07.616Z,49.90
2022-09-29T23:25:34.085Z,49.90
2022-09-29T23:28:00.555Z,49.80
2022-09-29T23:30:27.021Z,49.70
2022-09-29T23:32:53.487Z,49.80
2022-09-29T23:35:19.993Z,49.70
2022-09-29T23:37:46.479Z,49.60
2022-09-29T23:40:12.969Z,49.70
2022-09-29T23:42:39.449Z,49.70
2022-09-29T23:45:05.934Z,49.70
2022-09-29T23:47:32.396Z,49.70
2022-09-29T23:49:58.878Z,49.70
2022-09-29T23:52:25.355Z,49.50
2022-09-29T23:54:51.894Z,49.60
2022-09-29T23:57:18.366Z,49.50
2022-09-29T23:59:44.846Z,49.50
